sensor_id;sensor_type;location;lat;lon;timestamp;temperature;humidity
32428;DHT22;18882;50.952;4.366;2024-03-02T09:19:36;9.80;99.90
32428;DHT22;18882;50.952;4.366;2024-03-02T09:26:04;10.40;99.90
32428;DHT22;18882;50.952;4.366;2024-03-02T09:29:21;10.40;99.90
32428;DHT22;18882;50.952;4.366;2024-03-02T09:36:03;10.40;99.90
32428;DHT22;18882;50.952;4.366;2024-03-02T09:39:31;10.50;99.90
32428;DHT22;18882;50.952;4.366;2024-03-02T09:42:46;10.60;99.90
32428;DHT22;18882;50.952;4.366;2024-03-02T09:46:31;10.60;99.90
32428;DHT22;18882;50.952;4.366;2024-03-02T09:52:28;10.60;99.90
32428;DHT22;18882;50.952;4.366;2024-03-02T09:55:51;10.50;99.90
32428;DHT22;18882;50.952;4.366;2024-03-02T09:59:07;10.50;99.90
32428;DHT22;18882;50.952;4.366;2024-03-02T10:02:35;10.60;99.90
32428;DHT22;18882;50.952;4.366;2024-03-02T16:35:14;11.90;99.90
32428;DHT22;18882;50.952;4.366;2024-03-02T16:38:19;12.10;99.90
32428;DHT22;18882;50.952;4.366;2024-03-02T16:41:53;12.10;99.90
32428;DHT22;18882;50.952;4.366;2024-03-02T16:44:43;12.10;99.90
32428;DHT22;18882;50.952;4.366;2024-03-02T16:51:21;12.10;99.90
32428;DHT22;18882;50.952;4.366;2024-03-02T16:54:28;12.20;99.90
32428;DHT22;18882;50.952;4.366;2024-03-02T16:57:40;12.20;99.90
32428;DHT22;18882;50.952;4.366;2024-03-02T17:00:49;12.10;99.90
32428;DHT22;18882;50.952;4.366;2024-03-02T17:03:47;12.00;99.90
32428;DHT22;18882;50.952;4.366;2024-03-02T17:07:13;11.80;99.90
32428;DHT22;18882;50.952;4.366;2024-03-02T17:10:14;11.80;99.90
32428;DHT22;18882;50.952;4.366;2024-03-02T17:13:39;11.80;99.90
32428;DHT22;18882;50.952;4.366;2024-03-02T17:16:56;11.80;99.90
32428;DHT22;18882;50.952;4.366;2024-03-02T17:22:59;11.70;99.90
32428;DHT22;18882;50.952;4.366;2024-03-02T17:26:35;11.70;99.90
32428;DHT22;18882;50.952;4.366;2024-03-02T17:29:42;11.60;99.90
32428;DHT22;18882;50.952;4.366;2024-03-02T17:32:54;11.50;99.90
32428;DHT22;18882;50.952;4.366;2024-03-02T17:35:55;11.50;99.90
32428;DHT22;18882;50.952;4.366;2024-03-02T17:38:36;11.50;99.90
32428;DHT22;18882;50.952;4.366;2024-03-02T17:41:24;11.50;99.90
32428;DHT22;18882;50.952;4.366;2024-03-02T17:44:16;11.50;99.90
32428;DHT22;18882;50.952;4.366;2024-03-02T17:47:18;11.50;99.90
32428;DHT22;18882;50.952;4.366;2024-03-02T17:50:16;11.50;99.90
32428;DHT22;18882;50.952;4.366;2024-03-02T17:52:56;11.50;99.90
32428;DHT22;18882;50.952;4.366;2024-03-02T17:56:11;11.40;99.90
32428;DHT22;18882;50.952;4.366;2024-03-02T17:58:46;11.40;99.90
32428;DHT22;18882;50.952;4.366;2024-03-02T18:01:43;11.40;99.90
32428;DHT22;18882;50.952;4.366;2024-03-02T18:04:29;11.50;99.90
32428;DHT22;18882;50.952;4.366;2024-03-02T18:07:35;11.40;99.90
32428;DHT22;18882;50.952;4.366;2024-03-02T18:10:42;11.30;99.90
32428;DHT22;18882;50.952;4.366;2024-03-02T18:13:11;11.30;99.90
32428;DHT22;18882;50.952;4.366;2024-03-02T18:15:47;11.20;99.90
32428;DHT22;18882;50.952;4.366;2024-03-02T18:18:26;11.30;99.90
32428;DHT22;18882;50.952;4.366;2024-03-02T18:21:18;11.20;99.90
32428;DHT22;18882;50.952;4.366;2024-03-02T18:24:06;11.20;99.90
32428;DHT22;18882;50.952;4.366;2024-03-02T18:27:13;11.20;99.90
32428;DHT22;18882;50.952;4.366;2024-03-02T18:30:08;11.20;99.90
32428;DHT22;18882;50.952;4.366;2024-03-02T18:32:40;11.20;99.90
32428;DHT22;18882;50.952;4.366;2024-03-02T18:35:27;11.10;99.90
32428;DHT22;18882;50.952;4.366;2024-03-02T18:37:55;11.10;99.90
32428;DHT22;18882;50.952;4.366;2024-03-02T18:40:27;11.00;99.90
32428;DHT22;18882;50.952;4.366;2024-03-02T18:42:53;10.90;99.90
32428;DHT22;18882;50.952;4.366;2024-03-02T18:45:20;10.90;99.90
32428;DHT22;18882;50.952;4.366;2024-03-02T18:47:48;10.90;99.90
32428;DHT22;18882;50.952;4.366;2024-03-02T18:50:24;10.90;99.90
32428;DHT22;18882;50.952;4.366;2024-03-02T18:52:53;11.00;99.90
32428;DHT22;18882;50.952;4.366;2024-03-02T18:55:32;10.90;99.90
32428;DHT22;18882;50.952;4.366;2024-03-02T18:58:07;10.80;99.90
32428;DHT22;18882;50.952;4.366;2024-03-02T19:00:35;10.90;99.90
32428;DHT22;18882;50.952;4.366;2024-03-02T19:03:05;10.90;99.90
32428;DHT22;18882;50.952;4.366;2024-03-02T19:05:34;10.90;99.90
32428;DHT22;18882;50.952;4.366;2024-03-02T19:08:05;10.80;99.90
32428;DHT22;18882;50.952;4.366;2024-03-02T19:10:37;10.80;99.90
32428;DHT22;18882;50.952;4.366;2024-03-02T19:13:08;10.90;99.90
32428;DHT22;18882;50.952;4.366;2024-03-02T19:15:37;10.80;99.90
32428;DHT22;18882;50.952;4.366;2024-03-02T19:18:05;10.70;99.90
32428;DHT22;18882;50.952;4.366;2024-03-02T19:20:31;10.60;99.90
32428;DHT22;18882;50.952;4.366;2024-03-02T19:23:00;10.60;99.90
32428;DHT22;18882;50.952;4.366;2024-03-02T19:25:29;10.50;99.90
32428;DHT22;18882;50.952;4.366;2024-03-02T19:28:00;10.40;99.90
32428;DHT22;18882;50.952;4.366;2024-03-02T19:30:33;10.30;99.90
32428;DHT22;18882;50.952;4.366;2024-03-02T19:33:00;10.30;99.90
32428;DHT22;18882;50.952;4.366;2024-03-02T19:35:26;10.30;99.90
32428;DHT22;18882;50.952;4.366;2024-03-02T19:37:55;10.30;99.90
32428;DHT22;18882;50.952;4.366;2024-03-02T19:40:21;10.20;99.90
32428;DHT22;18882;50.952;4.366;2024-03-02T19:43:06;10.20;99.90
32428;DHT22;18882;50.952;4.366;2024-03-02T19:45:36;10.20;99.90
32428;DHT22;18882;50.952;4.366;2024-03-02T19:48:09;10.10;99.90
32428;DHT22;18882;50.952;4.366;2024-03-02T19:50:38;10.20;99.90
32428;DHT22;18882;50.952;4.366;2024-03-02T19:53:09;10.20;99.90
32428;DHT22;18882;50.952;4.366;2024-03-02T19:55:38;10.20;99.90
32428;DHT22;18882;50.952;4.366;2024-03-02T19:58:07;10.20;99.90
32428;DHT22;18882;50.952;4.366;2024-03-02T20:00:36;10.00;99.90
32428;DHT22;18882;50.952;4.366;2024-03-02T20:03:12;10.00;99.90
32428;DHT22;18882;50.952;4.366;2024-03-02T20:05:40;9.90;99.90
32428;DHT22;18882;50.952;4.366;2024-03-02T20:08:07;9.80;99.90
32428;DHT22;18882;50.952;4.366;2024-03-02T20:10:43;9.90;99.90
32428;DHT22;18882;50.952;4.366;2024-03-02T20:13:59;9.80;99.90
32428;DHT22;18882;50.952;4.366;2024-03-02T20:16:51;9.80;99.90
32428;DHT22;18882;50.952;4.366;2024-03-02T20:19:43;9.80;99.90
32428;DHT22;18882;50.952;4.366;2024-03-02T20:22:25;9.80;99.90
32428;DHT22;18882;50.952;4.366;2024-03-02T20:25:12;9.80;99.90
32428;DHT22;18882;50.952;4.366;2024-03-02T20:27:41;9.90;99.90
32428;DHT22;18882;50.952;4.366;2024-03-02T20:30:11;9.90;99.90
32428;DHT22;18882;50.952;4.366;2024-03-02T20:32:39;10.00;99.90
32428;DHT22;18882;50.952;4.366;2024-03-02T20:35:14;10.00;99.90
32428;DHT22;18882;50.952;4.366;2024-03-02T20:38:21;10.00;99.90
32428;DHT22;18882;50.952;4.366;2024-03-02T20:40:47;10.10;99.90
32428;DHT22;18882;50.952;4.366;2024-03-02T20:43:19;10.10;99.90
32428;DHT22;18882;50.952;4.366;2024-03-02T20:45:49;10.10;99.90
32428;DHT22;18882;50.952;4.366;2024-03-02T20:48:16;10.30;99.90
32428;DHT22;18882;50.952;4.366;2024-03-02T20:50:45;10.30;99.90
32428;DHT22;18882;50.952;4.366;2024-03-02T20:53:16;10.40;99.90
32428;DHT22;18882;50.952;4.366;2024-03-02T20:55:43;10.40;99.90
32428;DHT22;18882;50.952;4.366;2024-03-02T20:58:10;10.40;99.90
32428;DHT22;18882;50.952;4.366;2024-03-02T21:00:44;10.50;99.90
32428;DHT22;18882;50.952;4.366;2024-03-02T21:03:15;10.60;99.90
32428;DHT22;18882;50.952;4.366;2024-03-02T21:05:44;10.60;99.90
32428;DHT22;18882;50.952;4.366;2024-03-02T21:08:14;10.60;99.90
32428;DHT22;18882;50.952;4.366;2024-03-02T21:10:41;10.60;99.90
32428;DHT22;18882;50.952;4.366;2024-03-02T21:13:08;10.60;99.90
32428;DHT22;18882;50.952;4.366;2024-03-02T21:15:36;10.60;99.90
32428;DHT22;18882;50.952;4.366;2024-03-02T21:18:06;10.70;99.90
32428;DHT22;18882;50.952;4.366;2024-03-02T21:20:32;10.70;99.90
32428;DHT22;18882;50.952;4.366;2024-03-02T21:23:01;10.70;99.90
32428;DHT22;18882;50.952;4.366;2024-03-02T21:26:08;10.80;99.90
32428;DHT22;18882;50.952;4.366;2024-03-02T21:28:51;10.80;99.90
32428;DHT22;18882;50.952;4.366;2024-03-02T21:31:37;10.70;99.90
32428;DHT22;18882;50.952;4.366;2024-03-02T21:35:07;10.70;99.90
32428;DHT22;18882;50.952;4.366;2024-03-02T21:38:04;10.60;99.90
32428;DHT22;18882;50.952;4.366;2024-03-02T21:41:03;10.50;99.90
32428;DHT22;18882;50.952;4.366;2024-03-02T21:43:56;10.50;99.90
32428;DHT22;18882;50.952;4.366;2024-03-02T21:47:02;10.60;99.90
32428;DHT22;18882;50.952;4.366;2024-03-02T21:49:43;10.60;99.90
32428;DHT22;18882;50.952;4.366;2024-03-02T21:52:53;10.60;99.90
32428;DHT22;18882;50.952;4.366;2024-03-02T21:55:49;10.70;99.90
32428;DHT22;18882;50.952;4.366;2024-03-02T21:58:26;10.60;99.90
32428;DHT22;18882;50.952;4.366;2024-03-02T22:01:35;10.50;99.90
32428;DHT22;18882;50.952;4.366;2024-03-02T22:04:05;10.50;99.90
32428;DHT22;18882;50.952;4.366;2024-03-02T22:06:32;10.50;99.90
32428;DHT22;18882;50.952;4.366;2024-03-02T22:09:32;10.50;99.90
32428;DHT22;18882;50.952;4.366;2024-03-02T22:26:18;10.50;99.90
32428;DHT22;18882;50.952;4.366;2024-03-02T22:29:25;10.50;99.90
32428;DHT22;18882;50.952;4.366;2024-03-02T22:32:05;10.40;99.90
32428;DHT22;18882;50.952;4.366;2024-03-02T22:34:48;10.40;99.90
32428;DHT22;18882;50.952;4.366;2024-03-02T22:37:15;10.40;99.90
32428;DHT22;18882;50.952;4.366;2024-03-02T22:39:44;10.40;99.90
32428;DHT22;18882;50.952;4.366;2024-03-02T22:42:09;10.40;99.90
32428;DHT22;18882;50.952;4.366;2024-03-02T22:44:39;10.40;99.90
32428;DHT22;18882;50.952;4.366;2024-03-02T22:47:21;10.40;99.90
32428;DHT22;18882;50.952;4.366;2024-03-02T22:49:47;10.50;99.90
32428;DHT22;18882;50.952;4.366;2024-03-02T22:52:13;10.50;99.90
32428;DHT22;18882;50.952;4.366;2024-03-02T22:54:40;10.60;99.90
32428;DHT22;18882;50.952;4.366;2024-03-02T22:57:08;10.60;99.90
32428;DHT22;18882;50.952;4.366;2024-03-02T22:59:48;10.70;99.90
32428;DHT22;18882;50.952;4.366;2024-03-02T23:02:17;10.80;99.90
32428;DHT22;18882;50.952;4.366;2024-03-02T23:08:26;10.90;99.90
32428;DHT22;18882;50.952;4.366;2024-03-02T23:10:55;10.90;99.90
32428;DHT22;18882;50.952;4.366;2024-03-02T23:13:26;10.90;99.90
32428;DHT22;18882;50.952;4.366;2024-03-02T23:16:19;11.00;99.90
32428;DHT22;18882;50.952;4.366;2024-03-02T23:19:33;11.10;99.90
32428;DHT22;18882;50.952;4.366;2024-03-02T23:22:50;11.10;99.90
32428;DHT22;18882;50.952;4.366;2024-03-02T23:25:50;11.00;99.90
32428;DHT22;18882;50.952;4.366;2024-03-02T23:28:42;10.90;99.90
32428;DHT22;18882;50.952;4.366;2024-03-02T23:31:37;10.80;99.90
32428;DHT22;18882;50.952;4.366;2024-03-02T23:34:25;10.90;99.90
32428;DHT22;18882;50.952;4.366;2024-03-02T23:37:44;10.90;99.90
32428;DHT22;18882;50.952;4.366;2024-03-02T23:40:26;10.90;99.90
32428;DHT22;18882;50.952;4.366;2024-03-02T23:44:00;11.00;99.90
32428;DHT22;18882;50.952;4.366;2024-03-02T23:47:22;11.00;99.90
32428;DHT22;18882;50.952;4.366;2024-03-02T23:50:37;10.90;99.90
32428;DHT22;18882;50.952;4.366;2024-03-02T23:53:38;10.90;99.90
32428;DHT22;18882;50.952;4.366;2024-03-02T23:59:47;10.80;99.90
